sensor_id;sensor_type;location;lat;lon;timestamp;P1;durP1;ratioP1;P2;durP2;ratioP2
52918;SDS011;38793;52.690;6.812;2022-11-20T00:01:09;21.70;;;15.45;;
52918;SDS011;38793;52.690;6.812;2022-11-20T00:03:37;20.38;;;14.65;;
52918;SDS011;38793;52.690;6.812;2022-11-20T00:06:02;20.37;;;14.40;;
52918;SDS011;38793;52.690;6.812;2022-11-20T00:08:29;18.73;;;13.05;;
52918;SDS011;38793;52.690;6.812;2022-11-20T00:10:55;21.03;;;13.67;;
52918;SDS011;38793;52.690;6.812;2022-11-20T00:13:21;21.60;;;13.70;;
52918;SDS011;38793;52.690;6.812;2022-11-20T00:15:46;18.80;;;12.03;;
52918;SDS011;38793;52.690;6.812;2022-11-20T00:18:12;14.87;;;10.93;;
52918;SDS011;38793;52.690;6.812;2022-11-20T00:20:37;19.10;;;12.63;;
52918;SDS011;38793;52.690;6.812;2022-11-20T00:23:03;17.57;;;12.53;;
52918;SDS011;38793;52.690;6.812;2022-11-20T00:25:29;14.63;;;10.98;;
52918;SDS011;38793;52.690;6.812;2022-11-20T00:27:54;17.17;;;12.17;;
52918;SDS011;38793;52.690;6.812;2022-11-20T00:30:20;17.43;;;11.43;;
52918;SDS011;38793;52.690;6.812;2022-11-20T00:32:45;14.23;;;10.33;;
52918;SDS011;38793;52.690;6.812;2022-11-20T00:35:11;18.53;;;12.17;;
52918;SDS011;38793;52.690;6.812;2022-11-20T00:37:36;18.43;;;12.43;;
52918;SDS011;38793;52.690;6.812;2022-11-20T00:40:02;15.80;;;12.50;;
52918;SDS011;38793;52.690;6.812;2022-11-20T00:42:28;17.75;;;12.35;;
52918;SDS011;38793;52.690;6.812;2022-11-20T00:44:53;20.97;;;12.93;;
52918;SDS011;38793;52.690;6.812;2022-11-20T00:47:19;21.30;;;13.67;;
52918;SDS011;38793;52.690;6.812;2022-11-20T00:49:44;18.70;;;11.97;;
52918;SDS011;38793;52.690;6.812;2022-11-20T00:52:10;21.47;;;14.30;;
52918;SDS011;38793;52.690;6.812;2022-11-20T00:54:36;23.47;;;15.10;;
52918;SDS011;38793;52.690;6.812;2022-11-20T00:57:01;20.93;;;14.47;;
52918;SDS011;38793;52.690;6.812;2022-11-20T00:59:27;20.43;;;13.87;;
52918;SDS011;38793;52.690;6.812;2022-11-20T01:01:52;20.83;;;13.93;;
52918;SDS011;38793;52.690;6.812;2022-11-20T01:04:18;20.10;;;13.50;;
52918;SDS011;38793;52.690;6.812;2022-11-20T01:06:43;21.37;;;14.77;;
52918;SDS011;38793;52.690;6.812;2022-11-20T01:09:10;20.33;;;14.17;;
52918;SDS011;38793;52.690;6.812;2022-11-20T01:11:38;21.10;;;14.65;;
52918;SDS011;38793;52.690;6.812;2022-11-20T01:14:07;24.45;;;15.07;;
52918;SDS011;38793;52.690;6.812;2022-11-20T01:16:37;20.10;;;13.20;;
52918;SDS011;38793;52.690;6.812;2022-11-20T01:19:09;20.45;;;14.38;;
52918;SDS011;38793;52.690;6.812;2022-11-20T01:21:38;19.95;;;14.85;;
52918;SDS011;38793;52.690;6.812;2022-11-20T01:24:06;20.30;;;13.68;;
52918;SDS011;38793;52.690;6.812;2022-11-20T01:26:35;20.80;;;13.88;;
52918;SDS011;38793;52.690;6.812;2022-11-20T01:29:02;19.70;;;12.73;;
52918;SDS011;38793;52.690;6.812;2022-11-20T01:31:33;24.95;;;14.95;;
52918;SDS011;38793;52.690;6.812;2022-11-20T01:34:01;19.55;;;13.50;;
52918;SDS011;38793;52.690;6.812;2022-11-20T01:36:29;17.98;;;12.43;;
52918;SDS011;38793;52.690;6.812;2022-11-20T01:38:57;21.77;;;13.50;;
52918;SDS011;38793;52.690;6.812;2022-11-20T01:41:24;19.40;;;12.70;;
52918;SDS011;38793;52.690;6.812;2022-11-20T01:44:10;16.83;;;12.55;;
52918;SDS011;38793;52.690;6.812;2022-11-20T01:46:40;20.13;;;13.85;;
52918;SDS011;38793;52.690;6.812;2022-11-20T01:49:16;20.08;;;13.48;;
52918;SDS011;38793;52.690;6.812;2022-11-20T01:51:50;19.48;;;14.93;;
52918;SDS011;38793;52.690;6.812;2022-11-20T01:54:27;19.17;;;13.70;;
52918;SDS011;38793;52.690;6.812;2022-11-20T01:57:03;21.05;;;13.55;;
52918;SDS011;38793;52.690;6.812;2022-11-20T01:59:33;21.40;;;13.82;;
52918;SDS011;38793;52.690;6.812;2022-11-20T02:02:04;23.55;;;14.30;;
52918;SDS011;38793;52.690;6.812;2022-11-20T02:04:29;17.80;;;12.63;;
52918;SDS011;38793;52.690;6.812;2022-11-20T02:06:57;19.47;;;14.57;;
52918;SDS011;38793;52.690;6.812;2022-11-20T02:09:25;21.23;;;13.07;;
52918;SDS011;38793;52.690;6.812;2022-11-20T02:11:51;21.70;;;14.95;;
52918;SDS011;38793;52.690;6.812;2022-11-20T02:14:17;20.67;;;13.65;;
52918;SDS011;38793;52.690;6.812;2022-11-20T02:16:45;17.85;;;11.93;;
52918;SDS011;38793;52.690;6.812;2022-11-20T02:19:14;16.67;;;12.18;;
52918;SDS011;38793;52.690;6.812;2022-11-20T02:24:32;23.38;;;13.82;;
52918;SDS011;38793;52.690;6.812;2022-11-20T02:26:59;19.92;;;12.68;;
52918;SDS011;38793;52.690;6.812;2022-11-20T02:29:32;17.73;;;12.43;;
52918;SDS011;38793;52.690;6.812;2022-11-20T02:32:01;20.60;;;13.52;;
52918;SDS011;38793;52.690;6.812;2022-11-20T02:34:28;20.02;;;12.93;;
52918;SDS011;38793;52.690;6.812;2022-11-20T02:36:54;21.73;;;13.45;;
52918;SDS011;38793;52.690;6.812;2022-11-20T02:39:21;19.08;;;12.93;;
52918;SDS011;38793;52.690;6.812;2022-11-20T02:41:49;18.02;;;12.93;;
52918;SDS011;38793;52.690;6.812;2022-11-20T02:44:17;18.38;;;12.18;;
52918;SDS011;38793;52.690;6.812;2022-11-20T02:46:43;18.33;;;13.27;;
52918;SDS011;38793;52.690;6.812;2022-11-20T02:49:08;22.10;;;14.83;;
52918;SDS011;38793;52.690;6.812;2022-11-20T02:51:34;20.40;;;12.73;;
52918;SDS011;38793;52.690;6.812;2022-11-20T02:53:59;22.00;;;14.60;;
52918;SDS011;38793;52.690;6.812;2022-11-20T02:56:25;17.87;;;13.27;;
52918;SDS011;38793;52.690;6.812;2022-11-20T02:58:51;19.00;;;13.27;;
52918;SDS011;38793;52.690;6.812;2022-11-20T03:01:16;24.27;;;15.17;;
52918;SDS011;38793;52.690;6.812;2022-11-20T03:03:42;18.30;;;13.03;;
52918;SDS011;38793;52.690;6.812;2022-11-20T03:06:07;21.40;;;14.40;;
52918;SDS011;38793;52.690;6.812;2022-11-20T03:08:33;19.98;;;13.40;;
52918;SDS011;38793;52.690;6.812;2022-11-20T03:11:03;22.17;;;13.93;;
52918;SDS011;38793;52.690;6.812;2022-11-20T03:13:31;20.80;;;13.52;;
52918;SDS011;38793;52.690;6.812;2022-11-20T03:15:56;20.60;;;14.13;;
52918;SDS011;38793;52.690;6.812;2022-11-20T03:18:22;20.23;;;13.63;;
52918;SDS011;38793;52.690;6.812;2022-11-20T03:20:47;20.50;;;13.40;;
52918;SDS011;38793;52.690;6.812;2022-11-20T03:23:13;23.77;;;14.03;;
52918;SDS011;38793;52.690;6.812;2022-11-20T03:25:38;20.90;;;15.53;;
52918;SDS011;38793;52.690;6.812;2022-11-20T03:28:04;23.00;;;13.83;;
52918;SDS011;38793;52.690;6.812;2022-11-20T03:30:29;24.10;;;15.50;;
52918;SDS011;38793;52.690;6.812;2022-11-20T03:32:55;23.43;;;15.80;;
52918;SDS011;38793;52.690;6.812;2022-11-20T03:35:20;21.13;;;14.87;;
52918;SDS011;38793;52.690;6.812;2022-11-20T03:37:46;21.67;;;14.40;;
52918;SDS011;38793;52.690;6.812;2022-11-20T03:40:12;18.73;;;14.70;;
52918;SDS011;38793;52.690;6.812;2022-11-20T03:42:37;20.03;;;14.13;;
52918;SDS011;38793;52.690;6.812;2022-11-20T03:45:13;19.42;;;14.35;;
52918;SDS011;38793;52.690;6.812;2022-11-20T03:47:39;25.55;;;15.80;;
52918;SDS011;38793;52.690;6.812;2022-11-20T03:50:05;21.63;;;13.63;;
52918;SDS011;38793;52.690;6.812;2022-11-20T03:52:31;24.30;;;14.65;;
52918;SDS011;38793;52.690;6.812;2022-11-20T03:54:56;29.07;;;13.90;;
52918;SDS011;38793;52.690;6.812;2022-11-20T03:57:22;21.13;;;14.43;;
52918;SDS011;38793;52.690;6.812;2022-11-20T03:59:47;19.23;;;12.97;;
52918;SDS011;38793;52.690;6.812;2022-11-20T04:02:13;21.07;;;14.43;;
52918;SDS011;38793;52.690;6.812;2022-11-20T04:04:38;22.33;;;14.33;;
52918;SDS011;38793;52.690;6.812;2022-11-20T04:07:04;21.03;;;13.53;;
52918;SDS011;38793;52.690;6.812;2022-11-20T04:09:29;20.03;;;13.27;;
52918;SDS011;38793;52.690;6.812;2022-11-20T04:11:55;20.63;;;14.07;;
52918;SDS011;38793;52.690;6.812;2022-11-20T04:14:20;20.53;;;14.87;;
52918;SDS011;38793;52.690;6.812;2022-11-20T04:16:46;21.33;;;13.70;;
52918;SDS011;38793;52.690;6.812;2022-11-20T04:19:13;20.10;;;13.53;;
52918;SDS011;38793;52.690;6.812;2022-11-20T04:21:40;21.10;;;14.57;;
52918;SDS011;38793;52.690;6.812;2022-11-20T04:24:07;20.92;;;13.93;;
52918;SDS011;38793;52.690;6.812;2022-11-20T04:26:33;21.67;;;14.18;;
52918;SDS011;38793;52.690;6.812;2022-11-20T04:28:59;19.83;;;13.40;;
52918;SDS011;38793;52.690;6.812;2022-11-20T04:31:30;25.85;;;15.20;;
52918;SDS011;38793;52.690;6.812;2022-11-20T04:34:02;21.33;;;14.65;;
52918;SDS011;38793;52.690;6.812;2022-11-20T04:36:29;20.17;;;14.20;;
52918;SDS011;38793;52.690;6.812;2022-11-20T04:38:56;17.33;;;12.68;;
52918;SDS011;38793;52.690;6.812;2022-11-20T04:41:31;20.65;;;14.90;;
52918;SDS011;38793;52.690;6.812;2022-11-20T04:43:58;19.88;;;13.82;;
52918;SDS011;38793;52.690;6.812;2022-11-20T04:46:27;23.55;;;15.80;;
52918;SDS011;38793;52.690;6.812;2022-11-20T04:48:54;17.50;;;13.30;;
52918;SDS011;38793;52.690;6.812;2022-11-20T04:51:20;21.95;;;14.95;;
52918;SDS011;38793;52.690;6.812;2022-11-20T04:53:46;20.38;;;14.40;;
52918;SDS011;38793;52.690;6.812;2022-11-20T04:56:12;20.00;;;14.00;;
52918;SDS011;38793;52.690;6.812;2022-11-20T04:58:39;21.58;;;14.45;;
52918;SDS011;38793;52.690;6.812;2022-11-20T05:03:41;19.80;;;13.75;;
52918;SDS011;38793;52.690;6.812;2022-11-20T05:06:08;22.40;;;14.27;;
52918;SDS011;38793;52.690;6.812;2022-11-20T05:08:35;24.08;;;13.73;;
52918;SDS011;38793;52.690;6.812;2022-11-20T05:11:02;22.57;;;14.40;;
52918;SDS011;38793;52.690;6.812;2022-11-20T05:13:28;21.35;;;14.35;;
52918;SDS011;38793;52.690;6.812;2022-11-20T05:15:54;22.97;;;15.87;;
52918;SDS011;38793;52.690;6.812;2022-11-20T05:18:19;19.50;;;13.67;;
52918;SDS011;38793;52.690;6.812;2022-11-20T05:20:45;23.43;;;14.67;;
52918;SDS011;38793;52.690;6.812;2022-11-20T05:23:10;20.17;;;14.37;;
52918;SDS011;38793;52.690;6.812;2022-11-20T05:25:36;21.90;;;15.20;;
52918;SDS011;38793;52.690;6.812;2022-11-20T05:28:01;19.37;;;12.97;;
52918;SDS011;38793;52.690;6.812;2022-11-20T05:30:27;18.67;;;13.67;;
52918;SDS011;38793;52.690;6.812;2022-11-20T05:32:52;20.63;;;13.47;;
52918;SDS011;38793;52.690;6.812;2022-11-20T05:35:18;21.17;;;15.07;;
52918;SDS011;38793;52.690;6.812;2022-11-20T05:37:44;25.00;;;14.03;;
52918;SDS011;38793;52.690;6.812;2022-11-20T05:40:09;22.07;;;15.10;;
52918;SDS011;38793;52.690;6.812;2022-11-20T05:42:36;21.73;;;14.68;;
52918;SDS011;38793;52.690;6.812;2022-11-20T05:45:02;20.13;;;13.87;;
52918;SDS011;38793;52.690;6.812;2022-11-20T05:47:33;20.75;;;14.30;;
52918;SDS011;38793;52.690;6.812;2022-11-20T05:49:59;21.63;;;15.30;;
52918;SDS011;38793;52.690;6.812;2022-11-20T05:52:28;21.15;;;14.68;;
52918;SDS011;38793;52.690;6.812;2022-11-20T05:54:54;24.60;;;14.85;;
52918;SDS011;38793;52.690;6.812;2022-11-20T05:57:19;19.60;;;14.40;;
52918;SDS011;38793;52.690;6.812;2022-11-20T05:59:45;18.83;;;13.47;;
52918;SDS011;38793;52.690;6.812;2022-11-20T06:02:10;23.43;;;15.60;;
52918;SDS011;38793;52.690;6.812;2022-11-20T06:04:36;22.70;;;14.53;;
52918;SDS011;38793;52.690;6.812;2022-11-20T06:07:01;24.70;;;17.00;;
52918;SDS011;38793;52.690;6.812;2022-11-20T06:09:27;24.77;;;14.83;;
52918;SDS011;38793;52.690;6.812;2022-11-20T06:11:53;28.03;;;15.43;;
52918;SDS011;38793;52.690;6.812;2022-11-20T06:14:18;20.03;;;14.87;;
52918;SDS011;38793;52.690;6.812;2022-11-20T06:16:44;28.47;;;16.30;;
52918;SDS011;38793;52.690;6.812;2022-11-20T06:19:09;18.50;;;14.47;;
52918;SDS011;38793;52.690;6.812;2022-11-20T06:21:35;23.87;;;14.33;;
52918;SDS011;38793;52.690;6.812;2022-11-20T06:24:00;21.27;;;14.40;;
52918;SDS011;38793;52.690;6.812;2022-11-20T06:26:26;23.40;;;15.13;;
52918;SDS011;38793;52.690;6.812;2022-11-20T06:31:20;22.10;;;13.98;;
52918;SDS011;38793;52.690;6.812;2022-11-20T06:33:47;21.70;;;15.52;;
52918;SDS011;38793;52.690;6.812;2022-11-20T06:36:14;20.55;;;14.95;;
52918;SDS011;38793;52.690;6.812;2022-11-20T06:38:40;29.08;;;15.73;;
52918;SDS011;38793;52.690;6.812;2022-11-20T06:41:07;22.55;;;15.80;;
52918;SDS011;38793;52.690;6.812;2022-11-20T06:43:37;19.58;;;14.05;;
52918;SDS011;38793;52.690;6.812;2022-11-20T06:46:03;24.13;;;14.77;;
52918;SDS011;38793;52.690;6.812;2022-11-20T06:48:29;23.30;;;16.25;;
52918;SDS011;38793;52.690;6.812;2022-11-20T06:50:55;21.33;;;15.25;;
52918;SDS011;38793;52.690;6.812;2022-11-20T06:53:21;23.05;;;14.82;;
52918;SDS011;38793;52.690;6.812;2022-11-20T06:55:48;22.67;;;15.70;;
52918;SDS011;38793;52.690;6.812;2022-11-20T06:58:14;23.23;;;15.13;;
52918;SDS011;38793;52.690;6.812;2022-11-20T07:00:40;21.90;;;14.73;;
52918;SDS011;38793;52.690;6.812;2022-11-20T07:03:07;25.20;;;16.33;;
52918;SDS011;38793;52.690;6.812;2022-11-20T07:05:34;19.30;;;13.75;;
52918;SDS011;38793;52.690;6.812;2022-11-20T07:08:00;22.75;;;14.35;;
52918;SDS011;38793;52.690;6.812;2022-11-20T07:10:27;20.85;;;13.35;;
52918;SDS011;38793;52.690;6.812;2022-11-20T07:12:53;21.13;;;14.40;;
52918;SDS011;38793;52.690;6.812;2022-11-20T07:15:20;21.67;;;14.45;;
52918;SDS011;38793;52.690;6.812;2022-11-20T07:17:46;21.25;;;14.63;;
52918;SDS011;38793;52.690;6.812;2022-11-20T07:20:12;21.57;;;14.87;;
52918;SDS011;38793;52.690;6.812;2022-11-20T07:22:38;22.30;;;14.38;;
52918;SDS011;38793;52.690;6.812;2022-11-20T07:25:04;22.50;;;14.70;;
52918;SDS011;38793;52.690;6.812;2022-11-20T07:29:56;20.92;;;13.65;;
52918;SDS011;38793;52.690;6.812;2022-11-20T07:32:22;21.33;;;14.17;;
52918;SDS011;38793;52.690;6.812;2022-11-20T07:34:48;20.67;;;13.82;;
52918;SDS011;38793;52.690;6.812;2022-11-20T07:37:14;20.25;;;14.10;;
52918;SDS011;38793;52.690;6.812;2022-11-20T07:39:40;21.63;;;14.27;;
52918;SDS011;38793;52.690;6.812;2022-11-20T07:42:06;21.53;;;15.23;;
52918;SDS011;38793;52.690;6.812;2022-11-20T07:44:32;21.77;;;13.88;;
52918;SDS011;38793;52.690;6.812;2022-11-20T07:46:57;21.47;;;13.57;;
52918;SDS011;38793;52.690;6.812;2022-11-20T07:49:23;20.60;;;14.33;;
52918;SDS011;38793;52.690;6.812;2022-11-20T07:51:52;22.13;;;14.47;;
52918;SDS011;38793;52.690;6.812;2022-11-20T07:54:19;22.42;;;15.35;;
52918;SDS011;38793;52.690;6.812;2022-11-20T07:56:45;21.38;;;13.65;;
52918;SDS011;38793;52.690;6.812;2022-11-20T07:59:11;20.50;;;14.48;;
52918;SDS011;38793;52.690;6.812;2022-11-20T08:01:37;23.27;;;13.77;;
52918;SDS011;38793;52.690;6.812;2022-11-20T08:04:03;21.95;;;14.50;;
52918;SDS011;38793;52.690;6.812;2022-11-20T08:06:29;22.97;;;14.60;;
52918;SDS011;38793;52.690;6.812;2022-11-20T08:08:55;18.77;;;13.35;;
52918;SDS011;38793;52.690;6.812;2022-11-20T08:11:20;22.17;;;15.27;;
52918;SDS011;38793;52.690;6.812;2022-11-20T08:14:05;19.63;;;12.77;;
52918;SDS011;38793;52.690;6.812;2022-11-20T08:16:44;20.35;;;13.10;;
52918;SDS011;38793;52.690;6.812;2022-11-20T08:19:14;22.48;;;14.52;;
52918;SDS011;38793;52.690;6.812;2022-11-20T08:21:41;19.40;;;13.65;;
52918;SDS011;38793;52.690;6.812;2022-11-20T08:24:07;21.45;;;13.70;;
52918;SDS011;38793;52.690;6.812;2022-11-20T08:26:34;18.73;;;13.52;;
52918;SDS011;38793;52.690;6.812;2022-11-20T08:31:26;17.45;;;12.75;;
52918;SDS011;38793;52.690;6.812;2022-11-20T08:33:52;18.90;;;12.90;;
52918;SDS011;38793;52.690;6.812;2022-11-20T08:36:18;17.67;;;12.90;;
52918;SDS011;38793;52.690;6.812;2022-11-20T08:38:48;22.23;;;14.15;;
52918;SDS011;38793;52.690;6.812;2022-11-20T08:41:15;21.17;;;13.90;;
52918;SDS011;38793;52.690;6.812;2022-11-20T08:43:58;21.77;;;15.00;;
52918;SDS011;38793;52.690;6.812;2022-11-20T08:46:25;23.00;;;14.48;;
52918;SDS011;38793;52.690;6.812;2022-11-20T08:48:52;22.92;;;15.60;;
52918;SDS011;38793;52.690;6.812;2022-11-20T08:51:18;21.40;;;15.15;;
52918;SDS011;38793;52.690;6.812;2022-11-20T08:53:45;22.50;;;16.25;;
52918;SDS011;38793;52.690;6.812;2022-11-20T08:56:11;20.70;;;14.32;;
52918;SDS011;38793;52.690;6.812;2022-11-20T08:58:37;23.17;;;15.07;;
52918;SDS011;38793;52.690;6.812;2022-11-20T09:01:03;25.20;;;14.52;;
52918;SDS011;38793;52.690;6.812;2022-11-20T09:03:29;23.23;;;15.55;;
52918;SDS011;38793;52.690;6.812;2022-11-20T09:06:02;20.70;;;15.50;;
52918;SDS011;38793;52.690;6.812;2022-11-20T09:08:29;21.95;;;15.50;;
52918;SDS011;38793;52.690;6.812;2022-11-20T09:10:56;21.90;;;14.77;;
52918;SDS011;38793;52.690;6.812;2022-11-20T09:13:22;21.92;;;15.02;;
52918;SDS011;38793;52.690;6.812;2022-11-20T09:15:53;19.73;;;14.65;;
52918;SDS011;38793;52.690;6.812;2022-11-20T09:18:22;20.05;;;13.75;;
52918;SDS011;38793;52.690;6.812;2022-11-20T09:20:49;21.13;;;13.88;;
52918;SDS011;38793;52.690;6.812;2022-11-20T09:23:15;18.15;;;14.18;;
52918;SDS011;38793;52.690;6.812;2022-11-20T09:25:41;16.65;;;12.35;;
52918;SDS011;38793;52.690;6.812;2022-11-20T09:28:07;18.00;;;12.45;;
52918;SDS011;38793;52.690;6.812;2022-11-20T09:30:33;17.35;;;13.15;;
52918;SDS011;38793;52.690;6.812;2022-11-20T09:32:59;17.60;;;12.37;;
52918;SDS011;38793;52.690;6.812;2022-11-20T09:35:24;17.17;;;11.87;;
52918;SDS011;38793;52.690;6.812;2022-11-20T09:37:50;15.50;;;11.38;;
52918;SDS011;38793;52.690;6.812;2022-11-20T09:40:19;15.10;;;12.25;;
52918;SDS011;38793;52.690;6.812;2022-11-20T09:54:31;20.23;;;13.23;;
52918;SDS011;38793;52.690;6.812;2022-11-20T09:57:00;15.20;;;12.27;;
52918;SDS011;38793;52.690;6.812;2022-11-20T10:01:57;14.55;;;10.95;;
52918;SDS011;38793;52.690;6.812;2022-11-20T10:04:25;15.25;;;12.32;;
52918;SDS011;38793;52.690;6.812;2022-11-20T10:09:50;16.48;;;12.07;;
52918;SDS011;38793;52.690;6.812;2022-11-20T10:12:31;17.70;;;12.70;;
52918;SDS011;38793;52.690;6.812;2022-11-20T10:15:20;15.05;;;12.23;;
52918;SDS011;38793;52.690;6.812;2022-11-20T10:18:04;32.47;;;15.23;;
52918;SDS011;38793;52.690;6.812;2022-11-20T10:20:46;13.80;;;12.25;;
52918;SDS011;38793;52.690;6.812;2022-11-20T10:23:45;15.15;;;12.15;;
52918;SDS011;38793;52.690;6.812;2022-11-20T10:29:24;18.30;;;12.35;;
52918;SDS011;38793;52.690;6.812;2022-11-20T10:32:00;17.02;;;10.98;;
52918;SDS011;38793;52.690;6.812;2022-11-20T10:34:39;22.25;;;11.50;;
52918;SDS011;38793;52.690;6.812;2022-11-20T10:37:15;13.70;;;11.13;;
52918;SDS011;38793;52.690;6.812;2022-11-20T10:39:50;13.65;;;11.13;;
52918;SDS011;38793;52.690;6.812;2022-11-20T10:42:42;12.73;;;9.48;;
52918;SDS011;38793;52.690;6.812;2022-11-20T10:45:21;13.20;;;9.70;;
52918;SDS011;38793;52.690;6.812;2022-11-20T10:47:56;13.05;;;9.85;;
52918;SDS011;38793;52.690;6.812;2022-11-20T10:50:25;12.27;;;8.98;;
52918;SDS011;38793;52.690;6.812;2022-11-20T10:52:56;16.40;;;9.90;;
52918;SDS011;38793;52.690;6.812;2022-11-20T10:55:54;13.85;;;10.02;;
52918;SDS011;38793;52.690;6.812;2022-11-20T10:58:34;16.83;;;10.07;;
52918;SDS011;38793;52.690;6.812;2022-11-20T11:01:15;14.20;;;9.70;;
52918;SDS011;38793;52.690;6.812;2022-11-20T11:03:43;10.18;;;8.52;;
52918;SDS011;38793;52.690;6.812;2022-11-20T11:08:43;10.25;;;9.15;;
52918;SDS011;38793;52.690;6.812;2022-11-20T11:13:45;9.73;;;7.63;;
52918;SDS011;38793;52.690;6.812;2022-11-20T11:16:48;13.00;;;9.60;;
52918;SDS011;38793;52.690;6.812;2022-11-20T11:19:14;11.43;;;8.30;;
52918;SDS011;38793;52.690;6.812;2022-11-20T11:21:50;14.93;;;10.40;;
52918;SDS011;38793;52.690;6.812;2022-11-20T11:24:28;9.73;;;8.73;;
52918;SDS011;38793;52.690;6.812;2022-11-20T11:26:56;11.60;;;9.40;;
52918;SDS011;38793;52.690;6.812;2022-11-20T11:29:24;13.38;;;9.73;;
52918;SDS011;38793;52.690;6.812;2022-11-20T11:32:02;10.32;;;9.18;;
52918;SDS011;38793;52.690;6.812;2022-11-20T11:34:29;13.60;;;10.43;;
52918;SDS011;38793;52.690;6.812;2022-11-20T11:36:57;11.57;;;9.13;;
52918;SDS011;38793;52.690;6.812;2022-11-20T11:39:24;17.30;;;11.32;;
52918;SDS011;38793;52.690;6.812;2022-11-20T11:41:51;13.20;;;10.38;;
52918;SDS011;38793;52.690;6.812;2022-11-20T11:44:17;15.70;;;10.97;;
52918;SDS011;38793;52.690;6.812;2022-11-20T11:47:03;12.88;;;9.60;;
52918;SDS011;38793;52.690;6.812;2022-11-20T11:49:34;14.48;;;9.30;;
52918;SDS011;38793;52.690;6.812;2022-11-20T11:52:15;14.00;;;10.30;;
52918;SDS011;38793;52.690;6.812;2022-11-20T11:54:49;15.68;;;11.05;;
52918;SDS011;38793;52.690;6.812;2022-11-20T11:57:40;14.15;;;10.48;;
52918;SDS011;38793;52.690;6.812;2022-11-20T12:00:16;13.98;;;10.35;;
52918;SDS011;38793;52.690;6.812;2022-11-20T12:05:23;14.93;;;10.67;;
52918;SDS011;38793;52.690;6.812;2022-11-20T12:07:55;13.75;;;10.82;;
52918;SDS011;38793;52.690;6.812;2022-11-20T12:10:42;12.80;;;9.80;;
52918;SDS011;38793;52.690;6.812;2022-11-20T12:13:26;12.48;;;10.68;;
52918;SDS011;38793;52.690;6.812;2022-11-20T12:15:59;11.13;;;9.60;;
52918;SDS011;38793;52.690;6.812;2022-11-20T12:18:26;12.88;;;9.65;;
52918;SDS011;38793;52.690;6.812;2022-11-20T12:23:28;13.00;;;9.93;;
52918;SDS011;38793;52.690;6.812;2022-11-20T12:37:21;12.73;;;9.02;;
52918;SDS011;38793;52.690;6.812;2022-11-20T12:43:04;13.75;;;9.75;;
52918;SDS011;38793;52.690;6.812;2022-11-20T12:46:02;13.77;;;11.18;;
52918;SDS011;38793;52.690;6.812;2022-11-20T13:00:02;16.05;;;11.85;;
52918;SDS011;38793;52.690;6.812;2022-11-20T13:07:37;17.75;;;13.60;;
52918;SDS011;38793;52.690;6.812;2022-11-20T13:10:03;17.23;;;13.45;;
52918;SDS011;38793;52.690;6.812;2022-11-20T13:12:44;19.13;;;14.77;;
52918;SDS011;38793;52.690;6.812;2022-11-20T13:18:00;20.92;;;14.82;;
52918;SDS011;38793;52.690;6.812;2022-11-20T13:20:27;20.33;;;14.98;;
52918;SDS011;38793;52.690;6.812;2022-11-20T13:22:55;21.05;;;15.48;;
52918;SDS011;38793;52.690;6.812;2022-11-20T13:27:52;23.83;;;15.45;;
52918;SDS011;38793;52.690;6.812;2022-11-20T13:30:19;45.65;;;15.60;;
52918;SDS011;38793;52.690;6.812;2022-11-20T13:32:50;36.00;;;16.98;;
52918;SDS011;38793;52.690;6.812;2022-11-20T13:35:26;23.65;;;15.15;;
52918;SDS011;38793;52.690;6.812;2022-11-20T13:40:30;24.52;;;15.70;;
52918;SDS011;38793;52.690;6.812;2022-11-20T13:43:01;20.77;;;15.57;;
52918;SDS011;38793;52.690;6.812;2022-11-20T13:45:32;23.38;;;17.48;;
52918;SDS011;38793;52.690;6.812;2022-11-20T13:48:02;22.17;;;16.00;;
52918;SDS011;38793;52.690;6.812;2022-11-20T13:53:29;23.85;;;15.77;;
52918;SDS011;38793;52.690;6.812;2022-11-20T13:56:21;25.73;;;16.98;;
52918;SDS011;38793;52.690;6.812;2022-11-20T13:59:05;21.17;;;16.63;;
52918;SDS011;38793;52.690;6.812;2022-11-20T14:01:49;24.15;;;16.42;;
52918;SDS011;38793;52.690;6.812;2022-11-20T14:04:17;21.70;;;16.90;;
52918;SDS011;38793;52.690;6.812;2022-11-20T14:06:48;22.45;;;17.63;;
52918;SDS011;38793;52.690;6.812;2022-11-20T14:09:30;23.63;;;17.02;;
52918;SDS011;38793;52.690;6.812;2022-11-20T14:11:57;23.15;;;16.42;;
52918;SDS011;38793;52.690;6.812;2022-11-20T14:14:27;23.70;;;18.07;;
52918;SDS011;38793;52.690;6.812;2022-11-20T14:17:04;21.90;;;17.58;;
52918;SDS011;38793;52.690;6.812;2022-11-20T14:19:41;23.67;;;18.30;;
52918;SDS011;38793;52.690;6.812;2022-11-20T14:22:15;23.98;;;17.30;;
52918;SDS011;38793;52.690;6.812;2022-11-20T14:24:45;23.30;;;17.15;;
52918;SDS011;38793;52.690;6.812;2022-11-20T14:27:25;25.10;;;18.45;;
52918;SDS011;38793;52.690;6.812;2022-11-20T14:29:50;25.07;;;17.70;;
52918;SDS011;38793;52.690;6.812;2022-11-20T14:32:19;28.60;;;18.93;;
52918;SDS011;38793;52.690;6.812;2022-11-20T14:34:49;25.92;;;19.13;;
52918;SDS011;38793;52.690;6.812;2022-11-20T14:37:20;27.05;;;18.67;;
52918;SDS011;38793;52.690;6.812;2022-11-20T14:39:52;26.17;;;19.10;;
52918;SDS011;38793;52.690;6.812;2022-11-20T14:42:24;25.92;;;18.77;;
52918;SDS011;38793;52.690;6.812;2022-11-20T14:44:51;26.58;;;18.42;;
52918;SDS011;38793;52.690;6.812;2022-11-20T14:47:21;30.48;;;19.38;;
52918;SDS011;38793;52.690;6.812;2022-11-20T14:49:50;27.25;;;19.60;;
52918;SDS011;38793;52.690;6.812;2022-11-20T14:52:18;26.77;;;19.85;;
52918;SDS011;38793;52.690;6.812;2022-11-20T14:54:52;25.42;;;18.15;;
52918;SDS011;38793;52.690;6.812;2022-11-20T14:57:27;26.40;;;18.98;;
52918;SDS011;38793;52.690;6.812;2022-11-20T15:02:41;28.52;;;20.63;;
52918;SDS011;38793;52.690;6.812;2022-11-20T15:05:08;28.58;;;19.75;;
52918;SDS011;38793;52.690;6.812;2022-11-20T15:07:37;30.13;;;21.08;;
52918;SDS011;38793;52.690;6.812;2022-11-20T15:12:39;28.40;;;20.40;;
52918;SDS011;38793;52.690;6.812;2022-11-20T15:15:11;30.08;;;20.83;;
52918;SDS011;38793;52.690;6.812;2022-11-20T15:17:39;30.38;;;21.00;;
52918;SDS011;38793;52.690;6.812;2022-11-20T15:20:09;30.98;;;21.50;;
52918;SDS011;38793;52.690;6.812;2022-11-20T15:22:38;27.60;;;21.13;;
52918;SDS011;38793;52.690;6.812;2022-11-20T15:25:13;35.77;;;22.57;;
52918;SDS011;38793;52.690;6.812;2022-11-20T15:27:41;34.63;;;21.30;;
52918;SDS011;38793;52.690;6.812;2022-11-20T15:30:17;29.83;;;20.40;;
52918;SDS011;38793;52.690;6.812;2022-11-20T15:32:45;27.63;;;20.85;;
52918;SDS011;38793;52.690;6.812;2022-11-20T15:35:11;28.25;;;21.42;;
52918;SDS011;38793;52.690;6.812;2022-11-20T15:37:38;30.88;;;21.42;;
52918;SDS011;38793;52.690;6.812;2022-11-20T15:40:05;29.40;;;20.77;;
52918;SDS011;38793;52.690;6.812;2022-11-20T15:42:32;29.98;;;20.60;;
52918;SDS011;38793;52.690;6.812;2022-11-20T15:47:25;30.63;;;22.58;;
52918;SDS011;38793;52.690;6.812;2022-11-20T15:49:58;32.15;;;23.05;;
52918;SDS011;38793;52.690;6.812;2022-11-20T15:52:24;29.30;;;20.02;;
52918;SDS011;38793;52.690;6.812;2022-11-20T15:54:50;30.63;;;20.93;;
52918;SDS011;38793;52.690;6.812;2022-11-20T15:57:15;31.77;;;21.65;;
52918;SDS011;38793;52.690;6.812;2022-11-20T15:59:41;29.93;;;20.27;;
52918;SDS011;38793;52.690;6.812;2022-11-20T16:02:10;31.47;;;21.00;;
52918;SDS011;38793;52.690;6.812;2022-11-20T16:04:36;31.00;;;21.42;;
52918;SDS011;38793;52.690;6.812;2022-11-20T16:07:03;29.55;;;22.15;;